This is the latest recevied weather packets stored in our database for station/object KB9GXK. If no packets are shown the sender has not sent any weather packets the latest 10 day(s).
| Time | Temp. | Humidity | Pressure | Rain* | Wind** | Luminosity | Snow |
|---|---|---|---|---|---|---|---|
| 1777497782 | 7.78° C | 76% | 1015.7 hPa | 0 mm | - | 112 W/m² | - |
| 1777497478 | 7.78° C | 77% | 1016 hPa | 0 mm | - | 113 W/m² | - |
| 1777497175 | 7.22° C | 78% | 1015.9 hPa | 0 mm | - | 128 W/m² | - |
| 1777496872 | 7.22° C | 78% | 1016.3 hPa | 0 mm | - | 143 W/m² | - |
| 1777496265 | 7.22° C | 78% | 1016.3 hPa | 0 mm | - | 96 W/m² | - |
| 1777495961 | 7.78° C | 78% | 1016.1 hPa | 0 mm | - | 92 W/m² | - |
| 1777495657 | 7.22° C | 79% | 1016 hPa | 0 mm | - | 167 W/m² | - |
| 1777495050 | 7.22° C | 80% | 1016 hPa | 0 mm | - | 129 W/m² | - |
| 1777494445 | 7.22° C | 80% | 1016.1 hPa | 0 mm | - | 132 W/m² | - |
| 1777494141 | 6.67° C | 80% | 1016 hPa | 0 mm | - | 173 W/m² | - |
| 1777493838 | 7.22° C | 81% | 1015.7 hPa | 0 mm | - | 141 W/m² | - |
| 1777493537 | 7.22° C | 80% | 1015.7 hPa | 0 mm | - | 81 W/m² | - |
| 1777493234 | 7.22° C | 80% | 1015.9 hPa | 0 mm | - | 78 W/m² | - |
| 1777491710 | 7.78° C | 80% | 1015.9 hPa | 0 mm | - | 71 W/m² | - |
| 1777490496 | 8.33° C | 75% | 1015.4 hPa | 0 mm | - | 93 W/m² | - |
| 1777486257 | 8.33° C | 74% | 1015 hPa | 0 mm | - | 108 W/m² | - |
| 1777483226 | 7.78° C | 76% | 1015 hPa | 0 mm | - | 131 W/m² | - |
| 1777480496 | 8.89° C | 76% | 1014.8 hPa | 0 mm | - | 298 W/m² | - |
| 1777480193 | 8.89° C | 76% | 1014.7 hPa | 0 mm | - | 217 W/m² | - |
| 1777478981 | 7.78° C | 79% | 1014.8 hPa | 0 mm | - | 169 W/m² | - |
| 1777475945 | 7.78° C | 82% | 1014.9 hPa | 0 mm | - | 132 W/m² | - |
| 1777475338 | 7.78° C | 83% | 1014.8 hPa | 0 mm | - | 127 W/m² | - |
| 1777474730 | 7.78° C | 83% | 1014.7 hPa | 0 mm | - | 94 W/m² | - |
| 1777474123 | 7.78° C | 83% | 1014.7 hPa | 0 mm | - | 71 W/m² | - |
| 1777473517 | 7.78° C | 83% | 1014.6 hPa | 0 mm | - | 77 W/m² | - |
* Rain latest hour (hover to see other rain measurements)
** Current wind speed in m/s (hover to see current wind gust speed)